Time;durP1;ratioP1;P1;durP2;ratioP2;P2;SDS_P1;SDS_P2;PMS_P1;PMS_P2;Temp;Humidity;BMP_temperature;BMP_pressure;BME280_temperature;BME280_humidity;BME280_pressure;Samples;Min_cycle;Max_cycle;Signal;HPM_P1;HPM_P2
2024/04/17 00:00:04;;;;;;;3.90;0.50;;;;;;;;;;13385429;22;20335;-81
2024/04/17 00:05:10;;;;;;;1.17;0.50;;;;;;;;;;13371959;21;20743;-82
2024/04/17 00:10:14;;;;;;;0.95;0.52;;;;;;;;;;13379732;22;20432;-81
2024/04/17 00:15:18;;;;;;;1.05;0.80;;;;;;;;;;13386465;22;20367;-81
2024/04/17 00:20:25;;;;;;;1.37;0.70;;;;;;;;;;13388702;22;20391;-81
2024/04/17 00:25:29;;;;;;;1.13;0.85;;;;;;;;;;13387880;22;20426;-80
2024/04/17 00:30:32;;;;;;;1.70;1.00;;;;;;;;;;13387746;22;20597;-81
2024/04/17 00:35:39;;;;;;;1.33;1.20;;;;;;;;;;13387978;22;20359;-81
2024/04/17 00:40:43;;;;;;;2.63;1.00;;;;;;;;;;13388862;22;20339;-81
2024/04/17 00:45:49;;;;;;;1.48;1.20;;;;;;;;;;13387607;22;20387;-81
2024/04/17 00:50:57;;;;;;;2.17;1.58;;;;;;;;;;13388757;22;20431;-81
2024/04/17 00:56:02;;;;;;;2.15;1.50;;;;;;;;;;13391656;22;20460;-81
2024/04/17 01:01:06;;;;;;;2.53;1.43;;;;;;;;;;13392715;22;20335;-81
2024/04/17 01:06:13;;;;;;;2.22;1.67;;;;;;;;;;13391859;22;20412;-81
2024/04/17 01:11:17;;;;;;;1.67;1.45;;;;;;;;;;13391741;22;20443;-81
2024/04/17 01:16:21;;;;;;;2.05;1.73;;;;;;;;;;13391660;22;20414;-81
2024/04/17 01:21:28;;;;;;;2.95;1.92;;;;;;;;;;13391548;22;20787;-81
2024/04/17 01:26:34;;;;;;;2.42;2.00;;;;;;;;;;13391159;22;20335;-81
2024/04/17 01:31:39;;;;;;;2.20;2.00;;;;;;;;;;13391744;22;20331;-81
2024/04/17 01:36:42;;;;;;;3.23;2.10;;;;;;;;;;13392045;22;20335;-81
2024/04/17 01:41:49;;;;;;;2.72;2.40;;;;;;;;;;13390948;22;20426;-81
2024/04/17 01:46:53;;;;;;;2.67;2.00;;;;;;;;;;13390401;22;20722;-81
2024/04/17 01:51:57;;;;;;;2.30;2.10;;;;;;;;;;13389617;22;20687;-81
2024/04/17 01:57:03;;;;;;;2.67;2.17;;;;;;;;;;13390532;22;20375;-81
2024/04/17 02:02:08;;;;;;;2.78;2.17;;;;;;;;;;13389861;22;20773;-81
2024/04/17 02:07:11;;;;;;;2.67;2.28;;;;;;;;;;13390693;22;20331;-81
2024/04/17 02:12:18;;;;;;;3.67;2.38;;;;;;;;;;13391456;22;20424;-82
2024/04/17 02:17:22;;;;;;;2.88;2.30;;;;;;;;;;13390327;22;20477;-81
2024/04/17 02:22:26;;;;;;;4.57;2.40;;;;;;;;;;13391125;22;20356;-81
2024/04/17 02:27:32;;;;;;;3.07;2.20;;;;;;;;;;13390156;22;20435;-81
2024/04/17 02:32:36;;;;;;;2.78;2.20;;;;;;;;;;13389341;22;20375;-81
2024/04/17 02:37:40;;;;;;;3.90;2.10;;;;;;;;;;13390900;22;20331;-81
2024/04/17 02:42:46;;;;;;;2.97;1.92;;;;;;;;;;13389521;22;20814;-81
2024/04/17 02:47:50;;;;;;;2.75;2.15;;;;;;;;;;13390528;22;20440;-81
2024/04/17 02:52:54;;;;;;;3.97;2.25;;;;;;;;;;13390050;22;20320;-81
2024/04/17 02:58:00;;;;;;;3.20;2.30;;;;;;;;;;13389721;22;20383;-81
2024/04/17 03:03:05;;;;;;;3.70;2.05;;;;;;;;;;13389712;22;20375;-81
2024/04/17 03:08:09;;;;;;;2.60;1.95;;;;;;;;;;13388978;22;20390;-81
2024/04/17 03:13:16;;;;;;;2.70;1.75;;;;;;;;;;13389709;22;20327;-81
2024/04/17 03:18:19;;;;;;;2.65;1.55;;;;;;;;;;13389230;22;20697;-81
2024/04/17 03:23:23;;;;;;;3.40;1.60;;;;;;;;;;13389690;22;20432;-81
2024/04/17 03:28:30;;;;;;;2.67;1.63;;;;;;;;;;13388681;22;20482;-82
2024/04/17 03:33:34;;;;;;;2.60;1.70;;;;;;;;;;13389125;22;20446;-81
2024/04/17 03:38:41;;;;;;;2.47;1.70;;;;;;;;;;13389707;22;20417;-81
2024/04/17 03:43:47;;;;;;;1.92;1.50;;;;;;;;;;13388427;22;20335;-81
2024/04/17 03:48:51;;;;;;;2.55;1.70;;;;;;;;;;13388982;22;20343;-82
2024/04/17 03:53:55;;;;;;;1.75;1.60;;;;;;;;;;13388180;22;20424;-82
2024/04/17 03:59:02;;;;;;;2.00;1.80;;;;;;;;;;13388862;22;20324;-82
2024/04/17 04:04:06;;;;;;;2.72;2.10;;;;;;;;;;13388812;22;20418;-82
2024/04/17 04:09:09;;;;;;;2.75;2.22;;;;;;;;;;13387737;22;20922;-81
2024/04/17 04:14:16;;;;;;;7.13;2.70;;;;;;;;;;13387926;22;20679;-81
2024/04/17 04:19:20;;;;;;;3.72;2.63;;;;;;;;;;13388513;22;20782;-82
2024/04/17 04:24:24;;;;;;;3.43;2.40;;;;;;;;;;13386797;22;20390;-82
2024/04/17 04:29:30;;;;;;;2.95;2.40;;;;;;;;;;13388741;22;20339;-82
2024/04/17 04:34:34;;;;;;;4.30;2.93;;;;;;;;;;13387126;22;20359;-82
2024/04/17 04:39:38;;;;;;;3.88;3.15;;;;;;;;;;13386832;22;20364;-82
2024/04/17 04:44:45;;;;;;;2.88;2.50;;;;;;;;;;13386819;22;20427;-82
2024/04/17 04:49:49;;;;;;;3.00;2.27;;;;;;;;;;13385937;22;20360;-82
2024/04/17 04:54:53;;;;;;;4.97;2.90;;;;;;;;;;13383641;22;20722;-82
2024/04/17 04:59:59;;;;;;;7.78;2.80;;;;;;;;;;13386333;22;20370;-83
2024/04/17 05:05:03;;;;;;;4.30;2.50;;;;;;;;;;13386665;22;20371;-83
2024/04/17 05:10:07;;;;;;;3.80;2.42;;;;;;;;;;13384082;22;20461;-82
2024/04/17 05:15:14;;;;;;;4.60;2.30;;;;;;;;;;13385185;22;20367;-82
2024/04/17 05:20:18;;;;;;;3.97;2.20;;;;;;;;;;13383604;22;21113;-83
2024/04/17 05:25:22;;;;;;;3.13;2.00;;;;;;;;;;13382824;22;20363;-82
2024/04/17 05:30:28;;;;;;;2.53;2.20;;;;;;;;;;13383033;22;20359;-82
2024/04/17 05:35:32;;;;;;;5.68;3.17;;;;;;;;;;13384054;22;21047;-82
2024/04/17 05:40:36;;;;;;;4.30;2.10;;;;;;;;;;13385338;22;20387;-82
2024/04/17 05:45:43;;;;;;;2.43;1.67;;;;;;;;;;13388057;22;20378;-82
2024/04/17 05:50:47;;;;;;;2.47;1.73;;;;;;;;;;13385279;22;20438;-82
2024/04/17 05:55:50;;;;;;;1.83;1.40;;;;;;;;;;13384977;22;20435;-82
2024/04/17 06:00:57;;;;;;;2.33;1.77;;;;;;;;;;13386543;22;20363;-83
2024/04/17 06:06:01;;;;;;;2.37;1.60;;;;;;;;;;13384937;22;20391;-82
2024/04/17 06:11:05;;;;;;;3.15;1.52;;;;;;;;;;13387502;22;20383;-82
2024/04/17 06:16:11;;;;;;;2.42;1.65;;;;;;;;;;13389945;22;20387;-83
2024/04/17 06:21:15;;;;;;;3.45;1.70;;;;;;;;;;13389440;22;20383;-80
2024/04/17 06:26:19;;;;;;;2.47;1.60;;;;;;;;;;13389844;22;20436;-82
2024/04/17 06:31:27;;;;;;;1.92;1.70;;;;;;;;;;13389401;22;20375;-82
2024/04/17 06:36:31;;;;;;;2.60;1.80;;;;;;;;;;13388863;22;20371;-80
2024/04/17 06:41:35;;;;;;;1.85;1.60;;;;;;;;;;13387491;22;20339;-82
2024/04/17 06:46:42;;;;;;;2.40;1.65;;;;;;;;;;13388798;22;20386;-80
2024/04/17 06:51:46;;;;;;;2.25;1.58;;;;;;;;;;13387624;22;20850;-80
2024/04/17 06:56:49;;;;;;;3.75;1.85;;;;;;;;;;13388161;22;20371;-79
2024/04/17 07:01:56;;;;;;;2.38;1.45;;;;;;;;;;13389935;22;20431;-79
2024/04/17 07:07:00;;;;;;;2.83;1.30;;;;;;;;;;13389956;22;20864;-81
2024/04/17 07:12:05;;;;;;;2.15;1.95;;;;;;;;;;13388028;22;20905;-81
2024/04/17 07:17:12;;;;;;;2.35;1.55;;;;;;;;;;13386325;22;20429;-81
2024/04/17 07:22:16;;;;;;;3.63;1.80;;;;;;;;;;13388401;22;20788;-81
2024/04/17 07:27:20;;;;;;;2.50;1.60;;;;;;;;;;13388622;22;20841;-81
2024/04/17 07:32:26;;;;;;;2.90;1.63;;;;;;;;;;13388348;22;20440;-81
2024/04/17 07:37:30;;;;;;;3.08;1.50;;;;;;;;;;13389203;22;20453;-83
2024/04/17 07:42:34;;;;;;;3.13;1.50;;;;;;;;;;13388177;22;20435;-81
2024/04/17 07:47:40;;;;;;;3.83;1.85;;;;;;;;;;13388648;22;20457;-81
2024/04/17 07:52:45;;;;;;;3.88;1.70;;;;;;;;;;13386522;22;20461;-81
2024/04/17 07:57:48;;;;;;;6.67;1.97;;;;;;;;;;13387762;22;20412;-81
2024/04/17 08:02:55;;;;;;;3.80;1.65;;;;;;;;;;13388206;22;20893;-81
2024/04/17 08:07:59;;;;;;;3.53;1.50;;;;;;;;;;13387660;22;20383;-81
2024/04/17 08:13:11;;;;;;;4.28;2.00;;;;;;;;;;13388407;22;20335;-81
2024/04/17 08:18:17;;;;;;;2.63;1.23;;;;;;;;;;13388005;22;20906;-81
2024/04/17 08:23:21;;;;;;;3.95;1.58;;;;;;;;;;13387327;22;20436;-80
2024/04/17 08:28:25;;;;;;;2.03;1.50;;;;;;;;;;13387563;22;20324;-81
2024/04/17 08:33:32;;;;;;;1.48;1.15;;;;;;;;;;13386727;22;20370;-81
2024/04/17 08:38:36;;;;;;;4.05;1.15;;;;;;;;;;13386834;22;20396;-81
2024/04/17 08:43:40;;;;;;;2.77;1.57;;;;;;;;;;13387171;22;20434;-81
2024/04/17 08:48:48;;;;;;;1.90;1.20;;;;;;;;;;13387151;22;20371;-81
2024/04/17 08:53:53;;;;;;;3.60;1.40;;;;;;;;;;13386884;22;20725;-81
2024/04/17 08:58:57;;;;;;;1.70;1.20;;;;;;;;;;13387553;22;20363;-80
2024/04/17 09:04:05;;;;;;;4.47;1.38;;;;;;;;;;13387714;22;20388;-81
2024/04/17 09:09:13;;;;;;;3.65;1.27;;;;;;;;;;13387604;22;20432;-81
2024/04/17 09:14:19;;;;;;;2.53;1.15;;;;;;;;;;13391227;22;20331;-81
2024/04/17 09:19:26;;;;;;;2.83;1.30;;;;;;;;;;13392074;22;20335;-81
2024/04/17 09:24:30;;;;;;;2.20;1.10;;;;;;;;;;13381720;22;20363;-81
2024/04/17 09:29:34;;;;;;;1.98;1.30;;;;;;;;;;13386826;22;20473;-80
2024/04/17 09:34:41;;;;;;;1.37;1.00;;;;;;;;;;13384863;22;20868;-80
2024/04/17 09:39:45;;;;;;;2.70;1.30;;;;;;;;;;13386656;22;20402;-78
2024/04/17 09:44:51;;;;;;;2.25;1.42;;;;;;;;;;13376397;21;20371;-78
2024/04/17 09:49:59;;;;;;;3.08;1.45;;;;;;;;;;13373074;21;20387;-79
2024/04/17 09:55:04;;;;;;;2.65;1.35;;;;;;;;;;13374190;21;20390;-79
2024/04/17 10:00:11;;;;;;;2.83;1.57;;;;;;;;;;13372398;21;20395;-79
2024/04/17 10:05:19;;;;;;;2.38;1.38;;;;;;;;;;13370993;21;20339;-78
2024/04/17 10:10:23;;;;;;;2.63;1.70;;;;;;;;;;13373159;21;20383;-78
2024/04/17 10:15:27;;;;;;;2.97;1.43;;;;;;;;;;13372194;22;20386;-79
2024/04/17 10:20:34;;;;;;;3.80;1.60;;;;;;;;;;13370576;21;20396;-78
2024/04/17 10:25:48;;;;;;;4.83;1.80;;;;;;;;;;13370933;21;20398;-79
2024/04/17 10:30:55;;;;;;;3.25;2.10;;;;;;;;;;13370158;21;20383;-78
2024/04/17 10:36:02;;;;;;;3.57;2.00;;;;;;;;;;13368545;21;20391;-79
2024/04/17 10:41:06;;;;;;;4.72;1.90;;;;;;;;;;13369921;21;20940;-78
2024/04/17 10:46:11;;;;;;;2.78;1.65;;;;;;;;;;13371428;21;20381;-78
2024/04/17 10:51:20;;;;;;;3.40;1.77;;;;;;;;;;13369117;21;20392;-79
2024/04/17 10:56:24;;;;;;;2.63;1.47;;;;;;;;;;13369831;21;20459;-78
2024/04/17 11:01:30;;;;;;;3.60;1.97;;;;;;;;;;13371913;21;20391;-78
2024/04/17 11:06:38;;;;;;;3.80;2.00;;;;;;;;;;13369261;21;20763;-79
2024/04/17 11:11:46;;;;;;;3.20;1.77;;;;;;;;;;13370877;21;20849;-79
2024/04/17 11:16:50;;;;;;;4.00;2.00;;;;;;;;;;13370611;22;20396;-78
2024/04/17 11:21:59;;;;;;;3.80;1.95;;;;;;;;;;13370274;22;20674;-79
2024/04/17 11:27:03;;;;;;;2.03;1.58;;;;;;;;;;13370739;21;20343;-79
2024/04/17 11:32:08;;;;;;;4.60;1.95;;;;;;;;;;13371398;21;20387;-78
2024/04/17 11:37:15;;;;;;;2.75;1.50;;;;;;;;;;13369457;21;20378;-81
2024/04/17 11:42:19;;;;;;;1.90;1.40;;;;;;;;;;13369670;21;20415;-79
2024/04/17 11:47:23;;;;;;;1.95;1.27;;;;;;;;;;13370408;21;20442;-78
2024/04/17 11:52:32;;;;;;;2.40;1.50;;;;;;;;;;13368563;21;20476;-80
2024/04/17 11:57:36;;;;;;;2.40;1.50;;;;;;;;;;13365003;21;20431;-78
2024/04/17 12:02:40;;;;;;;2.97;1.75;;;;;;;;;;13369326;21;20375;-79
2024/04/17 12:07:46;;;;;;;5.45;2.17;;;;;;;;;;13381680;22;20383;-79
2024/04/17 12:12:50;;;;;;;3.47;2.10;;;;;;;;;;13380209;22;20363;-80
2024/04/17 12:17:54;;;;;;;4.72;1.70;;;;;;;;;;13380963;22;20665;-80
2024/04/17 12:23:01;;;;;;;2.83;1.83;;;;;;;;;;13379208;22;20438;-80
2024/04/17 12:28:05;;;;;;;4.65;1.63;;;;;;;;;;13380752;22;20698;-79
2024/04/17 12:33:09;;;;;;;3.57;1.50;;;;;;;;;;13365176;22;20335;-78
2024/04/17 12:38:16;;;;;;;9.30;2.10;;;;;;;;;;13366872;21;20441;-79
2024/04/17 12:43:20;;;;;;;5.43;1.80;;;;;;;;;;13363005;21;20335;-79
2024/04/17 12:48:24;;;;;;;4.43;2.10;;;;;;;;;;13370409;21;20387;-80
2024/04/17 13:49:24;;;;;;;3.10;1.90;;;;;;;;;;13975512;20;1901810;-80
2024/04/17 13:54:28;;;;;;;5.30;2.30;;;;;;;;;;14046808;21;20458;-81
2024/04/17 13:59:32;;;;;;;3.87;1.80;;;;;;;;;;14049010;21;20386;-80
2024/04/17 14:04:38;;;;;;;3.65;1.10;;;;;;;;;;14033947;21;20371;-81
2024/04/17 14:09:42;;;;;;;8.07;2.10;;;;;;;;;;14024031;21;20332;-81
2024/04/17 14:14:47;;;;;;;3.40;1.50;;;;;;;;;;14023730;21;20327;-81
2024/04/17 14:19:53;;;;;;;1.67;0.90;;;;;;;;;;14022513;21;21472;-81
2024/04/17 14:24:57;;;;;;;4.13;1.00;;;;;;;;;;14014166;21;20315;-80
2024/04/17 14:30:01;;;;;;;1.08;0.60;;;;;;;;;;14026902;21;20311;-79
2024/04/17 14:35:08;;;;;;;1.15;0.60;;;;;;;;;;14017762;21;20413;-80
2024/04/17 14:40:12;;;;;;;2.55;1.20;;;;;;;;;;14027766;21;20331;-80
2024/04/17 14:45:16;;;;;;;1.35;0.73;;;;;;;;;;14028408;21;20416;-81
2024/04/17 14:50:22;;;;;;;1.48;0.73;;;;;;;;;;14030553;21;20331;-81
2024/04/17 14:55:26;;;;;;;1.43;0.70;;;;;;;;;;14025786;21;20327;-81
2024/04/17 15:00:30;;;;;;;1.77;0.98;;;;;;;;;;14023383;21;20418;-80
2024/04/17 15:05:37;;;;;;;2.63;0.73;;;;;;;;;;14023868;21;20324;-80
2024/04/17 15:10:41;;;;;;;2.43;0.93;;;;;;;;;;14022360;21;20421;-80
2024/04/17 15:15:45;;;;;;;0.90;0.50;;;;;;;;;;14024576;21;20316;-80
2024/04/17 15:20:59;;;;;;;0.75;0.60;;;;;;;;;;14029698;21;20327;-81
2024/04/17 15:26:05;;;;;;;0.30;0.30;;;;;;;;;;14030671;21;20417;-80
2024/04/17 15:31:12;;;;;;;0.47;0.28;;;;;;;;;;14031274;21;20407;-80
2024/04/17 15:36:21;;;;;;;0.65;0.32;;;;;;;;;;14030210;21;20419;-80
2024/04/17 15:41:25;;;;;;;1.50;0.20;;;;;;;;;;14023958;21;20395;-80
2024/04/17 15:46:29;;;;;;;0.50;0.20;;;;;;;;;;14029256;21;20458;-80
2024/04/17 15:51:36;;;;;;;1.73;0.17;;;;;;;;;;14027288;21;20328;-80
2024/04/17 15:56:40;;;;;;;2.20;0.20;;;;;;;;;;14024492;21;20323;-80
2024/04/17 16:01:47;;;;;;;0.40;0.10;;;;;;;;;;14025885;21;20421;-80
2024/04/17 16:06:54;;;;;;;0.40;0.20;;;;;;;;;;14029800;21;20339;-80
2024/04/17 16:11:58;;;;;;;0.40;0.28;;;;;;;;;;14030117;21;20400;-80
2024/04/17 16:17:02;;;;;;;0.13;0.13;;;;;;;;;;14031256;21;20351;-80
2024/04/17 16:22:10;;;;;;;1.50;1.00;;;;;;;;;;14028333;21;20450;-81
2024/04/17 16:27:14;;;;;;;1.00;0.80;;;;;;;;;;14030288;21;20423;-80
2024/04/17 16:32:18;;;;;;;1.40;0.77;;;;;;;;;;14030942;21;20364;-81
2024/04/17 16:37:25;;;;;;;1.00;0.40;;;;;;;;;;14032253;21;20803;-80
2024/04/17 16:42:29;;;;;;;2.85;1.60;;;;;;;;;;14032015;21;20752;-80
2024/04/17 16:47:34;;;;;;;4.25;0.63;;;;;;;;;;14030126;21;20463;-81
2024/04/17 16:52:41;;;;;;;0.33;0.30;;;;;;;;;;14025581;21;20417;-80
2024/04/17 16:57:44;;;;;;;1.00;0.50;;;;;;;;;;14028883;21;20754;-80
2024/04/17 17:02:48;;;;;;;1.53;0.60;;;;;;;;;;14028879;21;20379;-80
2024/04/17 17:07:56;;;;;;;1.25;0.60;;;;;;;;;;14028797;21;20396;-80
2024/04/17 17:13:00;;;;;;;0.90;0.40;;;;;;;;;;14032802;21;20668;-80
2024/04/17 17:18:04;;;;;;;0.80;0.30;;;;;;;;;;14033341;21;20437;-81
2024/04/17 17:23:10;;;;;;;0.40;0.15;;;;;;;;;;14031212;21;20760;-80
2024/04/17 17:28:14;;;;;;;0.20;0.20;;;;;;;;;;14030459;21;20440;-81
2024/04/17 17:33:18;;;;;;;0.52;0.30;;;;;;;;;;14030374;21;20371;-80
2024/04/17 17:38:26;;;;;;;0.15;0.10;;;;;;;;;;14032877;21;20445;-80
2024/04/17 17:43:29;;;;;;;0.10;0.07;;;;;;;;;;14036046;21;20372;-81
2024/04/17 17:48:33;;;;;;;0.00;0.00;;;;;;;;;;14038600;21;20390;-81
2024/04/17 17:53:43;;;;;;;0.20;0.20;;;;;;;;;;14037362;21;20394;-79
2024/04/17 17:58:50;;;;;;;1.00;0.80;;;;;;;;;;14035914;21;20909;-80
2024/04/17 18:03:55;;;;;;;0.70;0.40;;;;;;;;;;14036096;21;20415;-80
2024/04/17 18:09:08;;;;;;;1.58;0.80;;;;;;;;;;14034519;21;20697;-81
2024/04/17 18:14:12;;;;;;;1.30;0.60;;;;;;;;;;14034409;21;20845;-80
2024/04/17 18:19:15;;;;;;;1.20;0.73;;;;;;;;;;14037885;21;20792;-79
2024/04/17 18:24:22;;;;;;;3.22;1.27;;;;;;;;;;14036275;21;20382;-79
2024/04/17 18:29:26;;;;;;;2.67;1.20;;;;;;;;;;14036369;21;20443;-78
2024/04/17 18:34:30;;;;;;;2.30;1.30;;;;;;;;;;14033842;21;20368;-79
2024/04/17 18:39:37;;;;;;;2.75;1.30;;;;;;;;;;14036554;21;20363;-80
2024/04/17 18:44:41;;;;;;;2.15;1.13;;;;;;;;;;14031056;21;20446;-78
2024/04/17 18:49:45;;;;;;;1.40;1.15;;;;;;;;;;14027416;21;20501;-80
2024/04/17 18:54:53;;;;;;;3.20;1.60;;;;;;;;;;14038794;21;20367;-80
2024/04/17 18:59:57;;;;;;;3.73;1.70;;;;;;;;;;14036805;21;20367;-79
2024/04/17 19:05:01;;;;;;;6.40;3.20;;;;;;;;;;14039019;21;20853;-79
2024/04/17 19:10:08;;;;;;;4.82;3.25;;;;;;;;;;14039312;21;20364;-80
2024/04/17 19:15:14;;;;;;;4.43;2.53;;;;;;;;;;14030106;21;20387;-80
2024/04/17 19:20:18;;;;;;;4.60;2.47;;;;;;;;;;14038602;21;20371;-79
2024/04/17 19:25:25;;;;;;;4.88;2.10;;;;;;;;;;14038220;21;20379;-79
2024/04/17 19:30:29;;;;;;;2.88;1.88;;;;;;;;;;14036330;21;20375;-78
2024/04/17 19:35:33;;;;;;;2.87;1.93;;;;;;;;;;14036543;21;20427;-78
2024/04/17 19:40:39;;;;;;;3.92;2.60;;;;;;;;;;14037509;21;20467;-78
2024/04/17 19:45:43;;;;;;;3.60;2.30;;;;;;;;;;14034668;21;20371;-78
2024/04/17 19:51:00;;;;;;;5.15;3.00;;;;;;;;;;14038196;21;20469;-77
2024/04/17 19:56:12;;;;;;;2.20;1.73;;;;;;;;;;14035705;21;20424;-79
2024/04/17 20:01:17;;;;;;;3.90;2.23;;;;;;;;;;14030227;21;20363;-80
2024/04/17 20:06:21;;;;;;;5.35;3.30;;;;;;;;;;14028622;21;20394;-80
2024/04/17 20:11:29;;;;;;;4.87;2.90;;;;;;;;;;14024838;21;21156;-81
2024/04/17 20:16:33;;;;;;;3.58;2.00;;;;;;;;;;14031127;21;20468;-81
2024/04/17 20:21:37;;;;;;;4.10;2.50;;;;;;;;;;14029548;21;20375;-80
2024/04/17 20:26:43;;;;;;;3.40;2.03;;;;;;;;;;14027955;21;20825;-81
2024/04/17 20:31:47;;;;;;;3.33;2.27;;;;;;;;;;14027094;21;20323;-81
2024/04/17 20:36:51;;;;;;;4.80;2.40;;;;;;;;;;14030985;21;20335;-81
2024/04/17 20:41:57;;;;;;;3.10;2.37;;;;;;;;;;14031637;21;20443;-80
2024/04/17 20:47:01;;;;;;;3.15;2.13;;;;;;;;;;14031947;21;20391;-80
2024/04/17 20:52:05;;;;;;;4.35;2.30;;;;;;;;;;14032059;21;20387;-80
2024/04/17 20:57:12;;;;;;;2.65;2.00;;;;;;;;;;14031210;21;20391;-80
2024/04/17 21:02:16;;;;;;;3.20;2.10;;;;;;;;;;14027507;21;20815;-81
2024/04/17 21:07:20;;;;;;;3.97;2.50;;;;;;;;;;14030806;21;20432;-81
2024/04/17 21:12:26;;;;;;;4.33;2.80;;;;;;;;;;14033758;21;20412;-80
2024/04/17 21:17:30;;;;;;;4.30;2.75;;;;;;;;;;14037597;21;20968;-80
2024/04/17 21:22:34;;;;;;;2.58;2.25;;;;;;;;;;14037719;21;20383;-81
2024/04/17 21:27:41;;;;;;;3.30;2.20;;;;;;;;;;14037403;21;20906;-81
2024/04/17 21:32:45;;;;;;;5.82;2.40;;;;;;;;;;14037469;21;20475;-80
2024/04/17 21:37:49;;;;;;;4.07;2.40;;;;;;;;;;14036391;21;20425;-80
2024/04/17 21:42:55;;;;;;;2.90;2.33;;;;;;;;;;14035074;21;20371;-81
2024/04/17 21:47:59;;;;;;;2.80;2.20;;;;;;;;;;14038339;21;20424;-81
2024/04/17 21:53:03;;;;;;;3.83;2.97;;;;;;;;;;14048425;21;20359;-81
2024/04/17 21:58:10;;;;;;;3.83;2.40;;;;;;;;;;14044933;21;20419;-81
2024/04/17 22:03:14;;;;;;;3.45;2.47;;;;;;;;;;14047040;21;20431;-81
2024/04/17 22:08:19;;;;;;;3.58;2.58;;;;;;;;;;14052644;21;20674;-81
2024/04/17 22:13:26;;;;;;;3.43;2.87;;;;;;;;;;14052706;21;20343;-81
2024/04/17 22:18:29;;;;;;;4.45;2.80;;;;;;;;;;14054118;21;20320;-80
2024/04/17 22:23:33;;;;;;;3.50;2.57;;;;;;;;;;14053160;21;20344;-79
2024/04/17 22:28:40;;;;;;;4.10;2.83;;;;;;;;;;14053004;21;20311;-81
2024/04/17 22:33:44;;;;;;;2.87;2.20;;;;;;;;;;14053369;21;20339;-80
2024/04/17 22:38:49;;;;;;;2.90;2.22;;;;;;;;;;14055049;21;20417;-81
2024/04/17 22:43:56;;;;;;;4.13;2.27;;;;;;;;;;14055102;21;20575;-80
2024/04/17 22:49:00;;;;;;;3.90;2.17;;;;;;;;;;14053119;21;20955;-80
2024/04/17 22:54:04;;;;;;;3.15;2.08;;;;;;;;;;14052933;21;20897;-81
2024/04/17 22:59:10;;;;;;;4.40;2.38;;;;;;;;;;14053333;21;20430;-80
2024/04/17 23:04:14;;;;;;;3.35;2.40;;;;;;;;;;14052320;21;20798;-81
2024/04/17 23:09:18;;;;;;;3.20;2.67;;;;;;;;;;14051121;21;20375;-81
2024/04/17 23:14:25;;;;;;;3.40;2.38;;;;;;;;;;14051486;21;20766;-81
2024/04/17 23:19:28;;;;;;;4.00;2.30;;;;;;;;;;14052522;21;20474;-81
2024/04/17 23:24:32;;;;;;;2.80;2.20;;;;;;;;;;14053510;21;20395;-81
2024/04/17 23:29:39;;;;;;;3.50;2.40;;;;;;;;;;14053629;21;20406;-81
2024/04/17 23:34:43;;;;;;;3.85;2.50;;;;;;;;;;14053149;21;20766;-81
2024/04/17 23:39:47;;;;;;;4.43;2.75;;;;;;;;;;14052883;21;20351;-81
2024/04/17 23:44:53;;;;;;;3.30;3.00;;;;;;;;;;14051961;21;20327;-80
2024/04/17 23:49:57;;;;;;;6.32;3.05;;;;;;;;;;14051429;21;20331;-91
2024/04/17 23:55:01;;;;;;;4.17;3.33;;;;;;;;;;14061808;21;20320;-90
